createdAt,value
2023-02-28T00:00:50.497Z,0.96
2023-02-28T00:02:09.728Z,0.94
2023-02-28T00:02:51.427Z,0.91
2023-02-28T00:03:51.248Z,0.94
2023-02-28T00:04:51.561Z,0.91
2023-02-28T00:05:50.499Z,0.90
2023-02-28T00:06:50.505Z,0.90
2023-02-28T00:07:51.421Z,0.87
2023-02-28T00:08:51.199Z,0.86
2023-02-28T00:09:50.981Z,0.86
2023-02-28T00:10:51.271Z,0.84
2023-02-28T00:12:09.601Z,0.86
2023-02-28T00:12:51.356Z,0.86
2023-02-28T00:13:51.111Z,0.83
2023-02-28T00:14:50.901Z,0.84
2023-02-28T00:15:51.179Z,0.84
2023-02-28T00:16:50.208Z,0.86
2023-02-28T00:17:50.504Z,0.86
2023-02-28T00:18:51.074Z,0.83
2023-02-28T00:19:51.298Z,0.79
2023-02-28T00:20:49.726Z,0.80
2023-02-28T00:22:09.473Z,0.80
2023-02-28T00:22:50.527Z,0.80
2023-02-28T00:23:50.986Z,0.79
2023-02-28T00:24:51.286Z,0.78
2023-02-28T00:25:51.064Z,0.76
2023-02-28T00:26:50.861Z,0.75
2023-02-28T00:27:50.364Z,0.73
2023-02-28T00:28:50.025Z,0.70
2023-02-28T00:29:50.026Z,0.69
2023-02-28T00:30:51.026Z,0.66
2023-02-28T00:32:09.380Z,0.65
2023-02-28T00:32:50.209Z,0.65
2023-02-28T00:33:50.993Z,0.65
2023-02-28T00:34:50.771Z,0.66
2023-02-28T00:35:49.791Z,0.68
2023-02-28T00:36:50.885Z,0.65
2023-02-28T00:37:51.155Z,0.68
2023-02-28T00:38:50.959Z,0.66
2023-02-28T00:39:50.728Z,0.62
2023-02-28T00:40:51.032Z,0.62
2023-02-28T00:42:09.376Z,0.62
2023-02-28T00:42:51.082Z,0.62
2023-02-28T00:43:50.877Z,0.62
2023-02-28T00:44:50.661Z,0.62
2023-02-28T00:45:50.947Z,0.65
2023-02-28T00:46:50.710Z,0.66
2023-02-28T00:47:50.018Z,0.65
2023-02-28T00:48:50.776Z,0.65
2023-02-28T00:49:50.541Z,0.66
2023-02-28T00:50:50.908Z,0.65
2023-02-28T00:52:09.214Z,0.65
2023-02-28T00:52:50.902Z,0.62
2023-02-28T00:53:50.016Z,0.62
2023-02-28T00:54:50.982Z,0.65
2023-02-28T00:55:50.773Z,0.61
2023-02-28T00:56:49.770Z,0.58
2023-02-28T00:57:50.823Z,0.60
2023-02-28T00:58:50.643Z,0.58
2023-02-28T00:59:50.026Z,0.58
2023-02-28T01:00:50.696Z,0.58
2023-02-28T01:02:09.024Z,0.55
2023-02-28T01:02:50.724Z,0.55
2023-02-28T01:03:50.532Z,0.51
2023-02-28T01:04:50.863Z,0.51
2023-02-28T01:05:50.025Z,0.50
2023-02-28T01:06:49.146Z,0.50
2023-02-28T01:07:50.751Z,0.51
2023-02-28T01:08:50.530Z,0.53
2023-02-28T01:09:50.047Z,0.55
2023-02-28T01:10:50.608Z,0.53
2023-02-28T01:12:09.431Z,0.51
2023-02-28T01:12:50.620Z,0.51
2023-02-28T01:13:50.416Z,0.50
2023-02-28T01:14:50.740Z,0.50
2023-02-28T01:15:50.551Z,0.53
2023-02-28T01:16:50.300Z,0.51
2023-02-28T01:17:49.525Z,0.49
2023-02-28T01:18:49.649Z,0.47
2023-02-28T01:19:50.677Z,0.46
2023-02-28T01:20:50.450Z,0.44
2023-02-28T01:22:09.291Z,0.42
2023-02-28T01:22:49.529Z,0.42
2023-02-28T01:23:50.330Z,0.42
2023-02-28T01:24:50.610Z,0.41
2023-02-28T01:25:50.396Z,0.41
2023-02-28T01:26:50.660Z,0.38
2023-02-28T01:27:50.464Z,0.36
2023-02-28T01:28:49.539Z,0.39
2023-02-28T01:29:50.498Z,0.38
2023-02-28T01:30:50.389Z,0.39
2023-02-28T01:32:09.169Z,0.39
2023-02-28T01:32:50.341Z,0.39
2023-02-28T01:33:49.554Z,0.38
2023-02-28T01:34:49.530Z,0.39
2023-02-28T01:35:50.243Z,0.38
2023-02-28T01:36:50.499Z,0.36
2023-02-28T01:37:50.289Z,0.36
2023-02-28T01:38:50.641Z,0.35
2023-02-28T01:39:49.529Z,0.33
2023-02-28T01:40:50.215Z,0.31
2023-02-28T01:42:09.018Z,0.29
2023-02-28T01:42:50.228Z,0.28
2023-02-28T01:43:50.517Z,0.24
2023-02-28T01:44:50.306Z,0.23
2023-02-28T01:45:49.565Z,0.21
2023-02-28T01:46:49.885Z,0.20
2023-02-28T01:47:49.397Z,0.21
2023-02-28T01:48:50.476Z,0.20
2023-02-28T01:49:50.236Z,0.20
2023-02-28T01:50:50.028Z,0.18
2023-02-28T01:52:08.845Z,0.20
2023-02-28T01:52:50.066Z,0.20
2023-02-28T01:53:50.386Z,0.18
2023-02-28T01:54:50.214Z,0.18
2023-02-28T01:55:49.978Z,0.20
2023-02-28T01:56:50.278Z,0.20
2023-02-28T01:57:50.055Z,0.18
2023-02-28T01:58:50.347Z,0.15
2023-02-28T01:59:49.367Z,0.14
2023-02-28T02:00:49.933Z,0.15
2023-02-28T02:02:08.762Z,0.15
2023-02-28T02:02:49.071Z,0.14
2023-02-28T02:03:49.535Z,0.14
2023-02-28T02:04:50.018Z,0.14
2023-02-28T02:05:50.305Z,0.13
2023-02-28T02:06:50.089Z,0.13
2023-02-28T02:07:49.372Z,0.15
2023-02-28T02:08:49.037Z,0.14
2023-02-28T02:09:49.049Z,0.13
2023-02-28T02:10:50.321Z,0.13
2023-02-28T02:12:08.576Z,0.15
2023-02-28T02:12:49.048Z,0.14
2023-02-28T02:13:50.073Z,0.14
2023-02-28T02:14:49.854Z,0.14
2023-02-28T02:15:49.078Z,0.14
2023-02-28T02:16:49.930Z,0.13
2023-02-28T02:17:49.707Z,0.14
2023-02-28T02:18:50.042Z,0.11
2023-02-28T02:19:49.779Z,0.11
2023-02-28T02:20:50.087Z,0.10
2023-02-28T02:22:08.398Z,0.08
2023-02-28T02:22:50.119Z,0.04
2023-02-28T02:23:49.901Z,0.03
2023-02-28T02:24:48.923Z,0.02
2023-02-28T02:25:50.010Z,-0.01
2023-02-28T02:26:49.797Z,-0.03
2023-02-28T02:27:49.049Z,-0.05
2023-02-28T02:28:49.874Z,-0.03
2023-02-28T02:29:49.633Z,-0.05
2023-02-28T02:30:49.938Z,-0.05
2023-02-28T02:32:08.308Z,-0.08
2023-02-28T02:32:49.967Z,-0.05
2023-02-28T02:33:49.041Z,-0.08
2023-02-28T02:34:49.547Z,-0.07
2023-02-28T02:35:49.857Z,-0.08
2023-02-28T02:36:49.599Z,-0.08
2023-02-28T02:37:49.885Z,-0.07
2023-02-28T02:38:48.887Z,-0.08
2023-02-28T02:39:49.066Z,-0.07
2023-02-28T02:40:49.741Z,-0.08
2023-02-28T02:42:08.396Z,-0.08
2023-02-28T02:42:49.803Z,-0.08
2023-02-28T02:43:49.547Z,-0.08
2023-02-28T02:44:49.062Z,-0.07
2023-02-28T02:45:48.857Z,-0.08
2023-02-28T02:46:49.484Z,-0.08
2023-02-28T02:47:49.719Z,-0.08
2023-02-28T02:48:49.513Z,-0.08
2023-02-28T02:49:49.822Z,-0.08
2023-02-28T02:50:49.083Z,-0.11
2023-02-28T02:52:07.969Z,-0.14
2023-02-28T02:52:49.662Z,-0.15
2023-02-28T02:53:48.691Z,-0.15
2023-02-28T02:54:49.708Z,-0.16
2023-02-28T02:55:49.495Z,-0.21
2023-02-28T02:56:48.586Z,-0.18
2023-02-28T02:57:49.621Z,-0.18
2023-02-28T02:58:49.411Z,-0.18
2023-02-28T02:59:49.705Z,-0.19
2023-02-28T03:00:49.496Z,-0.21
2023-02-28T03:02:09.270Z,-0.19
2023-02-28T03:02:49.223Z,-0.19
2023-02-28T03:03:49.571Z,-0.22
2023-02-28T03:04:49.313Z,-0.25
2023-02-28T03:05:49.609Z,-0.25
2023-02-28T03:06:49.365Z,-0.26
2023-02-28T03:07:48.564Z,-0.28
2023-02-28T03:08:49.460Z,-0.26
2023-02-28T03:09:49.243Z,-0.25
2023-02-28T03:10:49.514Z,-0.28
2023-02-28T03:12:08.800Z,-0.26
2023-02-28T03:12:48.196Z,-0.28
2023-02-28T03:13:48.580Z,-0.28
2023-02-28T03:14:49.263Z,-0.31
2023-02-28T03:15:49.544Z,-0.31
2023-02-28T03:16:48.578Z,-0.29
2023-02-28T03:17:49.606Z,-0.31
2023-02-28T03:18:48.568Z,-0.34
2023-02-28T03:19:49.196Z,-0.36
2023-02-28T03:20:49.486Z,-0.34
2023-02-28T03:22:07.882Z,-0.36
2023-02-28T03:22:48.573Z,-0.34
2023-02-28T03:23:49.385Z,-0.34
2023-02-28T03:24:48.573Z,-0.31
2023-02-28T03:25:49.022Z,-0.31
2023-02-28T03:26:48.876Z,-0.29
2023-02-28T03:27:49.223Z,-0.26
2023-02-28T03:28:49.051Z,-0.29
2023-02-28T03:29:48.575Z,-0.28
2023-02-28T03:30:48.405Z,-0.26
2023-02-28T03:32:08.225Z,-0.26
2023-02-28T03:32:49.290Z,-0.26
2023-02-28T03:33:49.117Z,-0.23
2023-02-28T03:34:49.449Z,-0.22
2023-02-28T03:35:48.599Z,-0.23
2023-02-28T03:36:49.155Z,-0.25
2023-02-28T03:37:48.938Z,-0.26
2023-02-28T03:38:49.254Z,-0.26
2023-02-28T03:39:49.067Z,-0.26
2023-02-28T03:40:48.883Z,-0.23
2023-02-28T03:42:07.773Z,-0.22
2023-02-28T03:42:48.532Z,-0.22
2023-02-28T03:43:48.860Z,-0.22
2023-02-28T03:44:49.171Z,-0.21
2023-02-28T03:45:49.032Z,-0.22
2023-02-28T03:46:48.811Z,-0.22
2023-02-28T03:47:48.110Z,-0.21
2023-02-28T03:48:47.471Z,-0.21
2023-02-28T03:49:47.781Z,-0.21
2023-02-28T03:50:47.573Z,-0.18
2023-02-28T03:52:07.863Z,-0.16
2023-02-28T03:52:48.295Z,-0.16
2023-02-28T03:53:47.406Z,-0.16
2023-02-28T03:54:47.688Z,-0.15
2023-02-28T03:55:47.468Z,-0.11
2023-02-28T03:56:47.721Z,-0.11
2023-02-28T03:57:47.539Z,-0.10
2023-02-28T03:58:47.333Z,-0.04
2023-02-28T03:59:47.607Z,-0.04
2023-02-28T04:00:47.387Z,-0.03
2023-02-28T04:02:07.765Z,0.00
2023-02-28T04:02:47.451Z,0.02
2023-02-28T04:03:47.243Z,0.00
2023-02-28T04:04:55.192Z,0.02
2023-02-28T04:05:47.477Z,0.02
2023-02-28T04:06:47.236Z,0.02
2023-02-28T04:07:47.467Z,0.03
2023-02-28T04:08:47.242Z,0.08
2023-02-28T04:09:53.754Z,0.10
2023-02-28T04:10:47.507Z,0.11
2023-02-28T04:12:07.272Z,0.11
2023-02-28T04:12:47.505Z,0.11
2023-02-28T04:13:47.711Z,0.15
2023-02-28T04:14:53.755Z,0.17
2023-02-28T04:15:47.522Z,0.18
2023-02-28T04:16:48.196Z,0.18
2023-02-28T04:17:47.497Z,0.21
2023-02-28T04:18:47.267Z,0.23
2023-02-28T04:19:53.780Z,0.28
2023-02-28T04:20:47.027Z,0.26
2023-02-28T04:22:07.295Z,0.29
2023-02-28T04:22:47.016Z,0.29
2023-02-28T04:23:47.277Z,0.31
2023-02-28T04:24:47.027Z,0.32
2023-02-28T04:25:47.288Z,0.31
2023-02-28T04:26:47.047Z,0.32
2023-02-28T04:27:47.276Z,0.32
2023-02-28T04:28:47.003Z,0.32
2023-02-28T04:29:47.275Z,0.35
2023-02-28T04:30:47.011Z,0.33
2023-02-28T04:32:07.324Z,0.36
2023-02-28T04:32:47.003Z,0.36
2023-02-28T04:33:48.701Z,0.36
2023-02-28T04:34:52.364Z,0.41
2023-02-28T04:35:47.130Z,0.39
2023-02-28T04:36:47.364Z,0.41
2023-02-28T04:37:47.111Z,0.39
2023-02-28T04:38:46.869Z,0.44
2023-02-28T04:39:47.120Z,0.41
2023-02-28T04:40:46.879Z,0.42
2023-02-28T04:42:08.118Z,0.44
2023-02-28T04:42:46.898Z,0.44
2023-02-28T04:43:47.122Z,0.46
2023-02-28T04:44:53.693Z,0.46
2023-02-28T04:45:46.951Z,0.49
2023-02-28T04:46:47.169Z,0.47
2023-02-28T04:47:46.919Z,0.47
2023-02-28T04:48:47.164Z,0.50
2023-02-28T04:49:53.172Z,0.51
2023-02-28T04:50:46.918Z,0.50
2023-02-28T04:52:07.191Z,0.51
2023-02-28T04:52:46.967Z,0.51
2023-02-28T04:53:47.185Z,0.53
2023-02-28T04:54:46.937Z,0.57
2023-02-28T04:55:48.148Z,0.58
2023-02-28T04:56:46.970Z,0.57
2023-02-28T04:57:46.699Z,0.58
2023-02-28T04:58:46.965Z,0.61
2023-02-28T04:59:46.722Z,0.61
2023-02-28T05:00:46.945Z,0.61
2023-02-28T05:02:08.627Z,0.61
2023-02-28T05:02:47.585Z,0.62
2023-02-28T05:03:46.904Z,0.62
2023-02-28T05:04:48.115Z,0.62
2023-02-28T05:05:46.925Z,0.61
2023-02-28T05:06:46.665Z,0.62
2023-02-28T05:07:46.930Z,0.62
2023-02-28T05:08:46.656Z,0.62
2023-02-28T05:09:46.930Z,0.65
2023-02-28T05:10:48.121Z,0.60
2023-02-28T05:12:06.958Z,0.61
2023-02-28T05:12:46.697Z,0.58
2023-02-28T05:13:46.947Z,0.58
2023-02-28T05:14:53.000Z,0.58
2023-02-28T05:15:46.753Z,0.57
2023-02-28T05:16:46.975Z,0.55
2023-02-28T05:17:46.707Z,0.53
2023-02-28T05:18:47.019Z,0.51
2023-02-28T05:19:48.156Z,0.49
2023-02-28T05:20:47.939Z,0.49
2023-02-28T05:22:07.466Z,0.49
2023-02-28T05:22:46.502Z,0.46
2023-02-28T05:23:48.205Z,0.47
2023-02-28T05:24:47.141Z,0.44
2023-02-28T05:25:46.790Z,0.47
2023-02-28T05:26:46.540Z,0.42
2023-02-28T05:27:46.786Z,0.44
2023-02-28T05:28:46.576Z,0.42
2023-02-28T05:29:54.592Z,0.42
2023-02-28T05:30:46.404Z,0.46
2023-02-28T05:32:07.198Z,0.44
2023-02-28T05:32:46.482Z,0.47
2023-02-28T05:33:48.176Z,0.47
2023-02-28T05:34:54.223Z,0.47
2023-02-28T05:35:47.294Z,0.49
2023-02-28T05:36:47.789Z,0.49
2023-02-28T05:37:47.159Z,0.51
2023-02-28T05:38:46.350Z,0.50
2023-02-28T05:39:54.336Z,0.50
2023-02-28T05:40:48.099Z,0.49
2023-02-28T05:42:07.892Z,0.50
2023-02-28T05:42:46.729Z,0.50
2023-02-28T05:43:47.162Z,0.50
2023-02-28T05:44:47.691Z,0.50
2023-02-28T05:45:48.011Z,0.50
2023-02-28T05:46:46.295Z,0.50
2023-02-28T05:47:47.963Z,0.49
2023-02-28T05:48:47.046Z,0.51
2023-02-28T05:49:47.165Z,0.53
2023-02-28T05:50:47.896Z,0.57
2023-02-28T05:52:06.219Z,0.55
2023-02-28T05:52:47.976Z,0.57
2023-02-28T05:53:47.804Z,0.57
2023-02-28T05:54:47.108Z,0.53
2023-02-28T05:55:46.417Z,0.55
2023-02-28T05:56:46.186Z,0.53
2023-02-28T05:57:46.415Z,0.51
2023-02-28T05:58:46.187Z,0.50
2023-02-28T05:59:46.413Z,0.49
2023-02-28T06:00:46.177Z,0.47
2023-02-28T06:02:07.475Z,0.46
2023-02-28T06:02:45.537Z,0.47
2023-02-28T06:03:46.354Z,0.46
2023-02-28T06:04:46.047Z,0.42
2023-02-28T06:05:46.278Z,0.42
2023-02-28T06:06:47.545Z,0.42
2023-02-28T06:07:47.183Z,0.39
2023-02-28T06:08:47.705Z,0.39
2023-02-28T06:09:47.485Z,0.38
2023-02-28T06:10:47.792Z,0.36
2023-02-28T06:12:06.451Z,0.35
2023-02-28T06:12:47.399Z,0.35
2023-02-28T06:13:46.677Z,0.32
2023-02-28T06:14:47.532Z,0.32
2023-02-28T06:15:47.831Z,0.33
2023-02-28T06:16:47.648Z,0.31
2023-02-28T06:17:46.176Z,0.31
2023-02-28T06:18:47.783Z,0.31
2023-02-28T06:19:46.702Z,0.31
2023-02-28T06:20:47.407Z,0.31
2023-02-28T06:22:07.750Z,0.32
2023-02-28T06:22:46.068Z,0.35
2023-02-28T06:23:46.291Z,0.35
2023-02-28T06:24:46.060Z,0.33
2023-02-28T06:25:46.314Z,0.33
2023-02-28T06:26:46.056Z,0.36
2023-02-28T06:27:45.813Z,0.39
2023-02-28T06:28:46.082Z,0.41
2023-02-28T06:29:45.821Z,0.41
2023-02-28T06:30:46.597Z,0.41
2023-02-28T06:32:07.398Z,0.46
2023-02-28T06:32:46.124Z,0.46
2023-02-28T06:33:46.095Z,0.46
2023-02-28T06:34:46.225Z,0.46
2023-02-28T06:35:45.977Z,0.47
2023-02-28T06:36:46.199Z,0.46
2023-02-28T06:37:45.940Z,0.51
2023-02-28T06:38:45.703Z,0.49
2023-02-28T06:39:45.934Z,0.51
2023-02-28T06:40:45.682Z,0.55
2023-02-28T06:42:06.911Z,0.60
2023-02-28T06:42:45.685Z,0.60
2023-02-28T06:43:45.944Z,0.62
2023-02-28T06:44:45.695Z,0.62
2023-02-28T06:45:45.951Z,0.66
2023-02-28T06:46:45.709Z,0.66
2023-02-28T06:47:46.003Z,0.68
2023-02-28T06:48:45.733Z,0.66
2023-02-28T06:49:45.948Z,0.68
2023-02-28T06:50:45.716Z,0.66
2023-02-28T06:52:05.998Z,0.68
2023-02-28T06:52:45.721Z,0.66
2023-02-28T06:53:45.970Z,0.66
2023-02-28T06:54:45.726Z,0.66
2023-02-28T06:55:45.980Z,0.66
2023-02-28T06:56:45.726Z,0.66
2023-02-28T06:57:45.979Z,0.66
2023-02-28T06:58:45.742Z,0.69
2023-02-28T06:59:45.973Z,0.66
2023-02-28T07:00:45.720Z,0.70
2023-02-28T07:02:06.945Z,0.72
2023-02-28T07:02:45.721Z,0.73
2023-02-28T07:03:45.481Z,0.76
2023-02-28T07:04:51.136Z,0.79
2023-02-28T07:05:45.873Z,0.84
2023-02-28T07:06:47.083Z,0.86
2023-02-28T07:07:46.684Z,0.90
2023-02-28T07:08:47.165Z,0.94
2023-02-28T07:09:45.677Z,0.98
2023-02-28T07:10:46.205Z,1.02
2023-02-28T07:12:06.574Z,1.06
2023-02-28T07:12:46.879Z,1.08
2023-02-28T07:13:47.179Z,1.09
2023-02-28T07:14:45.534Z,1.11
2023-02-28T07:15:47.277Z,1.12
2023-02-28T07:16:46.192Z,1.16
2023-02-28T07:17:46.833Z,1.20
2023-02-28T07:18:47.130Z,1.26
2023-02-28T07:19:45.552Z,1.33
2023-02-28T07:20:46.777Z,1.41
2023-02-28T07:22:05.577Z,1.60
2023-02-28T07:22:46.788Z,1.72
2023-02-28T07:23:47.046Z,2.09
2023-02-28T07:24:45.509Z,2.81
2023-02-28T07:25:47.152Z,3.58
2023-02-28T07:26:46.968Z,4.36
2023-02-28T07:27:46.203Z,5.04
2023-02-28T07:28:47.122Z,5.82
2023-02-28T07:29:45.549Z,6.48
2023-02-28T07:30:46.747Z,6.85
2023-02-28T07:32:05.595Z,7.35
2023-02-28T07:32:46.762Z,7.60
2023-02-28T07:33:46.200Z,7.93
2023-02-28T07:34:45.459Z,8.25
2023-02-28T07:35:46.697Z,8.43
2023-02-28T07:36:46.934Z,8.19
2023-02-28T07:37:46.718Z,8.00
2023-02-28T07:38:48.400Z,8.08
2023-02-28T07:39:45.606Z,8.04
2023-02-28T07:40:46.570Z,7.85
2023-02-28T07:42:06.336Z,7.63
2023-02-28T07:42:46.616Z,7.57
2023-02-28T07:43:46.957Z,7.28
2023-02-28T07:44:45.652Z,6.80
2023-02-28T07:45:46.141Z,6.66
2023-02-28T07:46:47.016Z,6.31
2023-02-28T07:47:46.850Z,6.36
2023-02-28T07:48:45.853Z,6.33
2023-02-28T07:49:45.669Z,6.34
2023-02-28T07:50:45.436Z,6.17
2023-02-28T07:52:06.152Z,6.12
2023-02-28T07:52:46.918Z,6.08
2023-02-28T07:53:46.720Z,5.75
2023-02-28T07:54:45.448Z,5.48
2023-02-28T07:55:45.728Z,5.30
2023-02-28T07:56:46.765Z,5.28
2023-02-28T07:57:46.536Z,5.67
2023-02-28T07:58:46.850Z,5.79
2023-02-28T07:59:46.223Z,5.64
2023-02-28T08:00:46.447Z,5.51
2023-02-28T08:02:06.238Z,5.49
2023-02-28T08:02:46.481Z,5.57
2023-02-28T08:03:46.756Z,5.79
2023-02-28T08:04:45.555Z,6.12
2023-02-28T08:05:45.292Z,6.03
2023-02-28T08:06:45.910Z,5.99
2023-02-28T08:07:46.334Z,6.73
2023-02-28T08:08:46.731Z,7.37
2023-02-28T08:09:45.552Z,7.57
2023-02-28T08:10:45.800Z,7.68
2023-02-28T08:12:05.124Z,7.52
2023-02-28T08:12:45.740Z,7.30
2023-02-28T08:13:46.649Z,7.03
2023-02-28T08:14:45.580Z,6.70
2023-02-28T08:15:46.218Z,6.58
2023-02-28T08:16:46.529Z,6.58
2023-02-28T08:17:46.280Z,6.84
2023-02-28T08:18:45.745Z,6.79
2023-02-28T08:19:45.611Z,6.66
2023-02-28T08:20:45.867Z,6.67
2023-02-28T08:22:04.938Z,6.95
2023-02-28T08:22:46.176Z,7.13
2023-02-28T08:23:45.740Z,7.32
2023-02-28T08:24:45.638Z,7.63
2023-02-28T08:25:46.527Z,8.01
2023-02-28T08:26:46.332Z,8.33
2023-02-28T08:27:46.153Z,8.22
2023-02-28T08:28:46.409Z,8.34
2023-02-28T08:29:44.781Z,8.56
2023-02-28T08:30:46.514Z,8.84
2023-02-28T08:32:05.883Z,9.02
2023-02-28T08:32:46.713Z,9.08
2023-02-28T08:33:46.370Z,9.29
2023-02-28T08:34:46.906Z,9.42
2023-02-28T08:35:45.700Z,9.54
2023-02-28T08:36:46.220Z,9.31
2023-02-28T08:37:45.030Z,9.28
2023-02-28T08:38:46.369Z,9.43
2023-02-28T08:39:45.486Z,9.74
2023-02-28T08:40:45.253Z,9.99
2023-02-28T08:42:08.281Z,10.79
2023-02-28T08:42:46.463Z,11.04
2023-02-28T08:43:46.213Z,11.00
2023-02-28T08:44:44.589Z,11.24
2023-02-28T08:45:46.333Z,11.60
2023-02-28T08:46:46.087Z,11.96
2023-02-28T08:47:45.247Z,12.52
2023-02-28T08:48:46.201Z,12.96
2023-02-28T08:49:45.474Z,13.28
2023-02-28T08:50:50.449Z,13.84
2023-02-28T08:52:07.539Z,14.15
2023-02-28T08:52:46.317Z,14.28
2023-02-28T08:53:48.109Z,14.42
2023-02-28T08:54:44.357Z,14.21
2023-02-28T08:55:44.604Z,14.57
2023-02-28T08:56:44.372Z,14.64
2023-02-28T08:58:12.613Z,14.37
2023-02-28T08:58:44.354Z,14.61
2023-02-28T08:59:45.102Z,15.09
2023-02-28T09:00:44.387Z,15.23
2023-02-28T09:02:39.658Z,15.20
2023-02-28T09:02:44.450Z,15.25
2023-02-28T09:03:45.222Z,14.72
2023-02-28T09:04:44.957Z,14.42
2023-02-28T09:05:45.207Z,15.07
2023-02-28T09:06:44.952Z,15.41
2023-02-28T09:10:24.707Z,15.87
2023-02-28T09:10:29.528Z,15.60
2023-02-28T09:17:10.804Z,15.80
2023-02-28T09:17:21.900Z,16.42
2023-02-28T12:23:32.780Z,16.15
2023-02-28T12:23:48.393Z,14.95
2023-02-28T12:24:39.175Z,13.97
2023-02-28T12:25:39.943Z,13.63
2023-02-28T12:26:37.631Z,13.52
2023-02-28T12:27:39.826Z,13.54
2023-02-28T12:28:37.630Z,14.07
2023-02-28T12:29:37.537Z,14.45
2023-02-28T12:30:58.801Z,14.57
2023-02-28T12:32:09.599Z,14.36
2023-02-28T12:32:58.310Z,13.84
2023-02-28T12:33:39.509Z,13.75
2023-02-28T12:34:38.843Z,13.05
2023-02-28T12:35:38.138Z,12.37
2023-02-28T12:36:39.813Z,11.78
2023-02-28T12:37:37.467Z,11.36
2023-02-28T12:38:39.661Z,11.02
2023-02-28T12:39:49.816Z,10.86
2023-02-28T12:40:39.857Z,10.79
2023-02-28T12:41:39.514Z,10.67
2023-02-28T12:42:58.374Z,10.32
2023-02-28T12:43:38.191Z,9.99
2023-02-28T12:44:38.377Z,9.74
2023-02-28T12:45:39.705Z,9.69
2023-02-28T12:46:38.986Z,9.86
2023-02-28T12:47:38.230Z,10.12
2023-02-28T12:48:38.011Z,10.56
2023-02-28T12:49:39.146Z,10.67
2023-02-28T12:50:37.998Z,10.78
2023-02-28T12:51:38.888Z,10.74
2023-02-28T12:52:58.990Z,10.79
2023-02-28T12:53:39.738Z,10.96
2023-02-28T12:54:38.086Z,10.82
2023-02-28T12:55:37.847Z,10.45
2023-02-28T12:56:39.537Z,10.09
2023-02-28T12:57:37.904Z,9.86
2023-02-28T12:58:38.876Z,9.84
2023-02-28T12:59:37.922Z,10.08
2023-02-28T13:00:39.612Z,10.25
2023-02-28T13:01:37.996Z,10.05
2023-02-28T13:02:59.976Z,9.64
2023-02-28T13:03:37.962Z,9.57
2023-02-28T13:04:38.877Z,9.43
2023-02-28T13:05:39.418Z,9.48
2023-02-28T13:06:37.759Z,9.60
2023-02-28T13:07:39.483Z,9.75
2023-02-28T13:08:40.104Z,9.64
2023-02-28T13:09:39.010Z,9.38
2023-02-28T13:10:37.872Z,9.21
2023-02-28T13:11:38.568Z,8.98
2023-02-28T13:12:58.636Z,8.87
2023-02-28T13:13:37.584Z,8.86
2023-02-28T13:14:38.876Z,8.80
2023-02-28T13:15:39.179Z,8.80
2023-02-28T13:16:38.447Z,8.71
2023-02-28T13:17:38.510Z,8.48
2023-02-28T13:18:39.079Z,8.29
2023-02-28T13:19:38.007Z,8.22
2023-02-28T13:20:39.266Z,8.19
2023-02-28T13:21:39.074Z,8.19
2023-02-28T13:22:57.917Z,8.22
2023-02-28T13:23:39.178Z,8.23
2023-02-28T13:24:38.517Z,8.23
2023-02-28T13:25:39.290Z,8.30
2023-02-28T13:26:39.086Z,8.36
2023-02-28T13:27:39.458Z,8.36
2023-02-28T13:28:38.365Z,8.33
2023-02-28T13:29:38.595Z,8.15
2023-02-28T13:30:38.894Z,8.11
2023-02-28T13:31:38.392Z,8.07
2023-02-28T13:32:57.503Z,8.26
2023-02-28T13:33:39.200Z,8.28
2023-02-28T13:34:37.751Z,8.26
2023-02-28T13:35:38.944Z,8.65
2023-02-28T13:36:39.199Z,9.01
2023-02-28T13:37:38.983Z,9.33
2023-02-28T13:38:39.326Z,9.26
2023-02-28T13:39:38.638Z,8.94
2023-02-28T13:40:38.442Z,8.56
2023-02-28T13:41:39.220Z,8.25
2023-02-28T13:42:57.585Z,8.11
2023-02-28T13:43:38.776Z,7.98
2023-02-28T13:44:38.575Z,7.87
2023-02-28T13:45:38.878Z,7.74
2023-02-28T13:46:38.519Z,7.71
2023-02-28T13:47:38.936Z,7.72
2023-02-28T13:48:38.776Z,7.72
2023-02-28T13:49:38.528Z,7.74
2023-02-28T13:50:37.472Z,7.69
2023-02-28T13:51:39.189Z,7.64
2023-02-28T13:52:57.507Z,7.55
2023-02-28T13:53:38.749Z,7.55
2023-02-28T13:54:38.534Z,7.60
2023-02-28T13:55:38.867Z,7.63
2023-02-28T13:56:37.902Z,7.68
2023-02-28T13:57:38.940Z,7.64
2023-02-28T13:58:37.919Z,7.57
2023-02-28T13:59:38.559Z,7.57
2023-02-28T14:00:38.185Z,7.52
2023-02-28T14:01:39.027Z,7.52
2023-02-28T14:02:57.305Z,7.58
2023-02-28T14:03:39.001Z,7.55
2023-02-28T14:04:37.359Z,7.50
2023-02-28T14:05:37.087Z,7.52
2023-02-28T14:06:37.313Z,7.40
2023-02-28T14:07:37.058Z,7.43
2023-02-28T14:08:37.330Z,7.45
2023-02-28T14:09:37.090Z,7.43
2023-02-28T14:10:37.345Z,7.45
2023-02-28T14:11:37.114Z,7.50
2023-02-28T14:12:59.032Z,7.48
2023-02-28T14:13:37.149Z,7.48
2023-02-28T14:14:37.423Z,7.43
2023-02-28T14:15:37.185Z,7.39
2023-02-28T14:16:37.438Z,7.30
2023-02-28T14:17:37.182Z,7.20
2023-02-28T14:18:36.987Z,7.17
2023-02-28T14:19:37.225Z,7.17
2023-02-28T14:20:36.975Z,7.20
2023-02-28T14:21:37.215Z,7.17
2023-02-28T14:22:58.426Z,7.17
2023-02-28T14:23:37.260Z,7.15
2023-02-28T14:24:37.034Z,7.16
2023-02-28T14:25:37.300Z,7.13
2023-02-28T14:26:37.051Z,7.15
2023-02-28T14:27:37.292Z,7.13
2023-02-28T14:28:37.084Z,7.09
2023-02-28T14:29:37.305Z,7.05
2023-02-28T14:30:37.058Z,7.09
2023-02-28T14:31:36.936Z,7.13
2023-02-28T14:32:58.565Z,7.21
2023-02-28T14:33:36.845Z,7.23
2023-02-28T14:34:37.095Z,7.23
2023-02-28T14:35:36.852Z,7.27
2023-02-28T14:36:37.095Z,7.28
2023-02-28T14:37:36.818Z,7.28
2023-02-28T14:38:37.099Z,7.25
2023-02-28T14:39:36.917Z,7.24
2023-02-28T14:40:37.171Z,7.21
2023-02-28T14:41:36.907Z,7.16
2023-02-28T14:42:58.636Z,7.21
2023-02-28T14:43:36.909Z,7.20
2023-02-28T14:44:36.664Z,7.21
2023-02-28T14:45:36.950Z,7.21
2023-02-28T14:46:36.769Z,7.23
2023-02-28T14:47:36.971Z,7.24
2023-02-28T14:48:36.709Z,7.28
2023-02-28T14:49:36.949Z,7.30
2023-02-28T14:50:36.811Z,7.25
2023-02-28T14:51:36.951Z,7.24
2023-02-28T14:52:56.914Z,7.25
2023-02-28T14:53:37.011Z,7.25
2023-02-28T14:54:36.763Z,7.27
2023-02-28T14:55:37.007Z,7.28
2023-02-28T14:56:36.775Z,7.24
2023-02-28T14:57:37.018Z,7.21
2023-02-28T14:58:36.793Z,7.20
2023-02-28T14:59:36.517Z,7.15
2023-02-28T15:00:36.737Z,7.07
2023-02-28T15:01:36.610Z,7.03
2023-02-28T15:02:58.280Z,7.07
2023-02-28T15:03:36.578Z,7.07
2023-02-28T15:04:36.838Z,7.12
2023-02-28T15:05:36.601Z,7.12
2023-02-28T15:06:36.826Z,7.15
2023-02-28T15:07:36.618Z,7.15
2023-02-28T15:08:37.280Z,7.10
2023-02-28T15:09:36.567Z,7.07
2023-02-28T15:10:36.813Z,7.07
2023-02-28T15:11:35.876Z,7.06
2023-02-28T15:12:57.488Z,7.07
2023-02-28T15:13:36.684Z,7.07
2023-02-28T15:14:36.452Z,7.09
2023-02-28T15:15:40.579Z,7.06
2023-02-28T15:16:37.510Z,7.07
2023-02-28T15:17:36.716Z,7.07
2023-02-28T15:18:36.467Z,7.09
2023-02-28T15:19:36.712Z,7.07
2023-02-28T15:20:36.471Z,7.09
2023-02-28T15:21:36.765Z,7.06
2023-02-28T15:22:56.501Z,6.98
2023-02-28T15:23:36.739Z,6.94
2023-02-28T15:24:36.493Z,6.94
2023-02-28T15:25:36.265Z,6.89
2023-02-28T15:26:36.524Z,6.84
2023-02-28T15:27:36.272Z,6.84
2023-02-28T15:28:36.522Z,6.85
2023-02-28T15:29:37.109Z,6.81
2023-02-28T15:30:36.532Z,6.81
2023-02-28T15:31:50.344Z,6.79
2023-02-28T15:32:57.650Z,6.79
2023-02-28T15:33:37.299Z,6.80
2023-02-28T15:34:43.138Z,6.80
2023-02-28T15:35:37.318Z,6.80
2023-02-28T15:36:36.528Z,6.79
2023-02-28T15:37:35.680Z,6.73
2023-02-28T15:38:36.389Z,6.70
2023-02-28T15:39:36.157Z,6.64
2023-02-28T15:40:36.380Z,6.59
2023-02-28T15:41:36.137Z,6.59
2023-02-28T15:42:57.909Z,6.62
2023-02-28T15:43:36.209Z,6.62
2023-02-28T15:44:38.022Z,6.62
2023-02-28T15:45:36.261Z,6.64
2023-02-28T15:46:36.449Z,6.64
2023-02-28T15:47:36.209Z,6.64
2023-02-28T15:48:36.458Z,6.64
2023-02-28T15:49:42.624Z,6.67
2023-02-28T15:50:37.465Z,6.69
2023-02-28T15:51:36.207Z,6.70
2023-02-28T15:52:57.998Z,6.69
2023-02-28T15:53:36.252Z,6.69
2023-02-28T15:54:36.081Z,6.62
2023-02-28T15:55:36.254Z,6.62
2023-02-28T15:56:36.019Z,6.62
2023-02-28T15:57:36.268Z,6.64
2023-02-28T15:58:36.010Z,6.66
2023-02-28T15:59:36.286Z,6.59
2023-02-28T16:00:36.013Z,6.59
2023-02-28T16:01:36.332Z,6.55
2023-02-28T16:02:57.629Z,6.54
2023-02-28T16:03:35.340Z,6.51
2023-02-28T16:04:36.278Z,6.46
2023-02-28T16:05:36.082Z,6.46
2023-02-28T16:06:35.325Z,6.43
2023-02-28T16:07:35.342Z,6.44
2023-02-28T16:08:36.099Z,6.44
2023-02-28T16:09:35.850Z,6.44
2023-02-28T16:10:36.079Z,6.43
2023-02-28T16:11:35.858Z,6.48
2023-02-28T16:12:56.993Z,6.51
2023-02-28T16:13:35.939Z,6.54
2023-02-28T16:14:36.179Z,6.54
2023-02-28T16:15:35.940Z,6.52
2023-02-28T16:16:36.221Z,6.51
2023-02-28T16:17:35.936Z,6.48
2023-02-28T16:18:35.261Z,6.46
2023-02-28T16:19:35.209Z,6.46
2023-02-28T16:20:35.173Z,6.43
2023-02-28T16:21:35.168Z,6.40
2023-02-28T16:22:56.676Z,6.43
2023-02-28T16:23:35.148Z,6.40
2023-02-28T16:24:35.182Z,6.40